Crawford, Oklahoma
Current Conditions -  °F | °C
As of 9:53 AM on Saturday 25 Oct 2014 (Local Time) from KGAG Reporting Station
Clear Clear  
Wind Chill: 62°   Ceiling: Unl
Heat Index: 62°   Visibility: 10mi
Dew Point: 54°   Wind: 5mph
Humidity: 75%   Direction: 260°W
Pressure: 30.12"   Gusts: NA
Location:  35.83°N, 99.8°W
Report Text: KGAG 251453Z AUTO 26004KT 10SM CLR 17/12 A3012 RMK AO2 SLP183 T01670122 53013
Loading
Personal Weather Stations






























Interactive Weather Map
Tropical Storm Tracking
New forecast layout! Learn more

10-Day Weather Forecast

Advertisements
Track Severe Weather on mobile